Time;durP1;ratioP1;P1;durP2;ratioP2;P2;SDS_P1;SDS_P2;PMS_P1;PMS_P2;Temp;Humidity;BMP_temperature;BMP_pressure;BME280_temperature;BME280_humidity;BME280_pressure;Samples;Min_cycle;Max_cycle;Signal;HPM_P1;HPM_P2
2022/08/03 00:01:35;;;;;;;90.80;86.15;;;;;;;30.01;38.63;101409.16;4879582;29;20036;-67
2022/08/03 00:04:00;;;;;;;94.68;90.18;;;;;;;29.98;38.66;101408.72;4879277;29;20029;-67
2022/08/03 00:06:26;;;;;;;91.07;86.32;;;;;;;29.95;38.69;101411.41;4880270;29;20120;-67
2022/08/03 00:08:51;;;;;;;91.15;87.05;;;;;;;29.92;38.48;101412.16;4879475;29;20045;-67
2022/08/03 00:11:16;;;;;;;92.00;87.45;;;;;;;29.88;38.68;101411.22;4879414;29;20494;-67
2022/08/03 00:13:42;;;;;;;92.50;87.90;;;;;;;29.84;38.70;101408.38;4879559;29;20059;-67
2022/08/03 00:16:09;;;;;;;92.45;87.45;;;;;;;29.82;38.64;101413.47;4879165;29;20045;-67
2022/08/03 00:18:35;;;;;;;90.70;85.78;;;;;;;29.77;38.53;101411.75;4879529;29;20040;-67
2022/08/03 00:21:01;;;;;;;90.53;86.32;;;;;;;29.75;38.57;101413.28;4881009;29;20112;-67
2022/08/03 00:23:26;;;;;;;87.55;83.25;;;;;;;29.73;38.98;101410.03;4883143;29;20470;-66
2022/08/03 00:25:51;;;;;;;88.63;83.88;;;;;;;29.68;38.99;101411.13;4883110;29;20060;-66
2022/08/03 00:28:17;;;;;;;90.10;85.43;;;;;;;29.66;38.79;101404.28;4883552;29;20032;-67
2022/08/03 00:30:42;;;;;;;88.82;84.70;;;;;;;29.62;38.75;101404.16;4883352;29;20040;-67
2022/08/03 00:33:09;;;;;;;91.13;86.68;;;;;;;29.59;38.92;101401.31;4882985;29;20431;-67
2022/08/03 00:35:35;;;;;;;86.55;82.38;;;;;;;29.55;38.94;101396.44;4883269;29;20144;-67
2022/08/03 00:38:00;;;;;;;88.22;83.90;;;;;;;29.53;38.71;101395.16;4883168;29;20072;-67
2022/08/03 00:40:26;;;;;;;84.47;80.20;;;;;;;29.50;38.80;101401.44;4883139;29;20037;-67
2022/08/03 00:42:55;;;;;;;82.53;78.53;;;;;;;29.46;38.91;101392.19;4883126;29;20393;-67
2022/08/03 00:45:24;;;;;;;85.43;81.05;;;;;;;29.43;38.99;101392.91;4882681;29;20133;-67
2022/08/03 00:47:49;;;;;;;85.68;81.38;;;;;;;29.39;39.34;101392.81;4882795;29;20048;-67
2022/08/03 00:50:16;;;;;;;81.57;77.47;;;;;;;29.36;38.97;101389.91;4882666;29;20029;-67
2022/08/03 00:52:42;;;;;;;81.28;77.40;;;;;;;29.34;39.00;101399.44;4882968;29;20061;-67
2022/08/03 00:55:09;;;;;;;82.05;78.05;;;;;;;29.30;39.04;101381.03;4882541;29;20410;-67
2022/08/03 00:57:35;;;;;;;84.25;80.20;;;;;;;29.27;38.92;101388.09;4882599;29;20037;-67
2022/08/03 01:00:01;;;;;;;87.35;82.97;;;;;;;29.23;39.55;101376.09;4883169;29;20092;-67
2022/08/03 01:02:27;;;;;;;82.55;78.00;;;;;;;29.22;39.53;101377.22;4882402;29;20093;-67
2022/08/03 01:04:53;;;;;;;85.07;80.88;;;;;;;29.19;39.38;101383.50;4882458;29;20541;-67
2022/08/03 01:07:55;;;;;;;83.28;79.05;;;;;;;29.16;39.31;101377.88;4882432;29;20041;-67
2022/08/03 01:10:37;;;;;;;85.15;80.95;;;;;;;29.12;39.39;101380.53;4882247;29;20033;-67
2022/08/03 01:13:23;;;;;;;80.78;76.10;;;;;;;29.07;39.58;101380.78;4896969;29;20419;-67
2022/08/03 01:15:59;;;;;;;84.22;80.22;;;;;;;29.05;39.66;101380.28;4881633;29;20049;-67
2022/08/03 01:18:49;;;;;;;82.38;77.97;;;;;;;29.00;39.62;101372.19;4882697;29;20362;-69
2022/08/03 01:21:30;;;;;;;88.78;84.22;;;;;;;28.98;39.57;101380.06;4881502;29;20041;-68
2022/08/03 01:23:58;;;;;;;84.57;79.70;;;;;;;28.94;39.48;101368.88;4882227;29;20040;-68
2022/08/03 01:26:45;;;;;;;81.97;77.97;;;;;;;28.91;39.61;101364.00;4882045;29;20041;-67
2022/08/03 01:29:36;;;;;;;78.80;75.05;;;;;;;28.87;39.73;101366.66;4882086;29;20025;-68
2022/08/03 01:32:09;;;;;;;79.35;74.97;;;;;;;28.83;39.57;101360.22;4871588;29;20429;-68
2022/08/03 01:34:42;;;;;;;85.03;80.72;;;;;;;28.80;39.88;101369.25;4881947;29;20100;-69
2022/08/03 01:37:09;;;;;;;80.47;76.60;;;;;;;28.78;39.95;101365.19;4882482;29;20048;-68
2022/08/03 01:39:38;;;;;;;81.88;77.40;;;;;;;28.75;39.98;101372.25;4881766;29;20374;-68
2022/08/03 01:42:06;;;;;;;79.93;75.75;;;;;;;28.72;39.83;101369.38;4882093;29;20040;-67
2022/08/03 01:44:37;;;;;;;;;;;;;;;28.68;39.50;101372.88;4882434;29;20033;-67
2022/08/03 01:47:03;;;;;;;81.63;77.10;;;;;;;28.65;39.68;101368.03;4881804;29;19955;-68
2022/08/03 01:49:32;;;;;;;79.72;75.38;;;;;;;28.63;39.97;101369.53;4881594;29;20064;-68
2022/08/03 01:51:59;;;;;;;82.80;78.75;;;;;;;28.58;39.95;101365.03;4881330;29;20049;-68
2022/08/03 01:54:27;;;;;;;78.57;74.35;;;;;;;28.56;39.98;101363.75;4882089;29;20040;-68
2022/08/03 01:56:55;;;;;;;80.83;76.07;;;;;;;28.53;40.03;101367.25;4881620;29;20116;-68
2022/08/03 01:59:22;;;;;;;80.88;76.95;;;;;;;28.51;40.30;101362.03;4881113;29;20039;-68
2022/08/03 02:01:49;;;;;;;78.57;74.55;;;;;;;28.48;40.15;101357.16;4881199;29;20080;-69
2022/08/03 02:04:17;;;;;;;78.82;75.10;;;;;;;28.47;40.27;101369.44;4881740;29;20041;-69
2022/08/03 02:06:45;;;;;;;78.35;74.35;;;;;;;28.44;40.28;101361.75;4881437;29;20037;-67
2022/08/03 02:09:12;;;;;;;78.15;74.00;;;;;;;28.40;40.19;101358.06;4881393;29;20080;-68
2022/08/03 02:11:39;;;;;;;78.50;74.45;;;;;;;28.37;40.05;101353.19;4881301;29;20072;-68
2022/08/03 02:14:06;;;;;;;76.72;72.72;;;;;;;28.34;40.37;101363.03;4881575;29;20120;-68
2022/08/03 02:16:33;;;;;;;79.32;75.10;;;;;;;28.33;40.45;101355.09;4881179;29;20037;-67
2022/08/03 02:19:01;;;;;;;75.83;71.93;;;;;;;28.30;40.55;101347.41;4881320;29;20044;-66
2022/08/03 02:21:31;;;;;;;81.10;76.75;;;;;;;28.26;40.47;101356.47;4881048;29;20033;-67
2022/08/03 02:23:56;;;;;;;78.43;74.63;;;;;;;28.23;40.39;101356.34;4881100;29;20036;-66
2022/08/03 02:26:23;;;;;;;79.82;75.40;;;;;;;28.21;40.41;101350.34;4880957;29;20033;-67
2022/08/03 02:28:51;;;;;;;77.53;73.38;;;;;;;28.18;40.74;101357.41;4881020;29;20067;-67
2022/08/03 02:31:20;;;;;;;79.28;75.25;;;;;;;28.16;40.41;101356.13;4880971;29;20041;-66
2022/08/03 02:33:50;;;;;;;79.65;75.60;;;;;;;28.13;40.85;101359.59;4880850;29;20048;-68
2022/08/03 02:36:20;;;;;;;74.93;70.93;;;;;;;28.10;40.84;101357.50;4880930;29;20033;-67
2022/08/03 02:38:51;;;;;;;77.53;73.57;;;;;;;28.07;40.61;101355.41;4880877;29;20028;-68
2022/08/03 02:41:21;;;;;;;77.07;72.97;;;;;;;28.04;40.71;101354.16;4881059;29;20378;-68
2022/08/03 02:43:50;;;;;;;76.40;72.18;;;;;;;28.01;40.50;101354.84;4881351;29;20040;-68
2022/08/03 02:46:19;;;;;;;78.07;74.32;;;;;;;27.98;40.51;101350.00;4880786;29;20091;-68
2022/08/03 02:48:47;;;;;;;74.90;71.05;;;;;;;27.95;40.69;101342.38;4880652;29;20032;-68
2022/08/03 02:51:12;;;;;;;;;;;;;;;27.92;40.32;101354.97;4881384;29;20128;-68
2022/08/03 02:53:39;;;;;;;76.70;72.35;;;;;;;27.88;40.50;101345.69;4880845;29;19989;-67
2022/08/03 02:56:07;;;;;;;78.68;74.50;;;;;;;27.86;40.60;101348.00;4880828;29;20051;-69
2022/08/03 02:58:33;;;;;;;80.10;75.32;;;;;;;27.82;40.58;101338.75;4894792;29;20029;-67
2022/08/03 03:01:00;;;;;;;75.25;71.40;;;;;;;27.81;40.74;101348.22;4880205;29;20033;-68
2022/08/03 03:03:26;;;;;;;75.53;71.63;;;;;;;27.78;41.01;101340.56;4881106;29;20043;-68
2022/08/03 03:05:52;;;;;;;76.95;73.10;;;;;;;27.75;40.81;101342.06;4880420;29;20433;-67
2022/08/03 03:08:20;;;;;;;75.43;71.72;;;;;;;27.72;40.92;101337.22;4880392;29;20037;-68
2022/08/03 03:10:46;;;;;;;71.90;68.30;;;;;;;27.70;40.75;101336.75;4880775;29;20037;-67
2022/08/03 03:13:14;;;;;;;72.85;69.28;;;;;;;27.67;41.09;101334.69;4880525;29;20265;-68
2022/08/03 03:15:42;;;;;;;74.30;70.43;;;;;;;27.64;41.22;101332.56;4880236;29;20478;-68
2022/08/03 03:18:08;;;;;;;73.85;69.70;;;;;;;27.62;41.03;101332.94;4879944;29;20029;-68
2022/08/03 03:20:36;;;;;;;75.85;72.20;;;;;;;27.60;41.04;101332.47;4880007;29;20066;-68
2022/08/03 03:23:02;;;;;;;74.25;70.05;;;;;;;27.57;41.14;101335.94;4880394;29;20033;-67
2022/08/03 03:25:30;;;;;;;75.07;71.38;;;;;;;27.55;41.23;101332.69;4880025;29;20119;-68
2022/08/03 03:27:57;;;;;;;73.35;69.50;;;;;;;27.53;40.92;101332.22;4880100;29;20033;-68
2022/08/03 03:30:22;;;;;;;74.63;71.03;;;;;;;27.49;41.19;101325.72;4880493;29;20033;-68
2022/08/03 03:32:49;;;;;;;73.70;69.93;;;;;;;27.47;41.39;101325.28;4880177;29;20036;-67
2022/08/03 03:35:15;;;;;;;73.03;69.40;;;;;;;27.45;41.14;101329.53;4880430;29;20037;-67
2022/08/03 03:37:41;;;;;;;73.10;69.15;;;;;;;27.42;41.21;101325.50;4879982;29;20363;-67
2022/08/03 03:40:07;;;;;;;73.28;69.55;;;;;;;27.38;41.08;101325.34;4880053;29;20044;-67
2022/08/03 03:42:33;;;;;;;75.93;71.57;;;;;;;27.35;41.30;101331.59;4879741;29;20048;-67
2022/08/03 03:45:02;;;;;;;73.97;70.30;;;;;;;27.33;41.12;101317.25;4894881;29;20140;-66
2022/08/03 03:47:28;;;;;;;75.63;72.13;;;;;;;27.31;40.93;101324.28;4879782;29;20382;-67
2022/08/03 03:49:53;;;;;;;76.53;72.43;;;;;;;27.28;41.35;101316.66;4879878;29;20470;-67
2022/08/03 03:52:19;;;;;;;72.55;68.80;;;;;;;27.25;41.23;101325.66;4879686;29;20446;-67
2022/08/03 03:54:44;;;;;;;74.35;70.85;;;;;;;27.23;40.89;101316.88;4879297;29;20037;-68
2022/08/03 03:57:10;;;;;;;73.25;69.78;;;;;;;27.20;41.15;101323.91;4880007;29;20048;-68
2022/08/03 03:59:40;;;;;;;78.13;73.68;;;;;;;27.17;41.44;101322.63;4878373;29;20037;-67
2022/08/03 04:02:07;;;;;;;72.80;69.10;;;;;;;27.15;41.23;101327.69;4894677;29;20056;-68
2022/08/03 04:12:56;;;;;;;69.43;66.05;;;;;;;27.01;41.21;101318.84;4879541;29;20504;-67
2022/08/03 04:15:24;;;;;;;75.78;71.38;;;;;;;26.99;41.48;101315.63;4879576;29;20115;-67
2022/08/03 04:17:54;;;;;;;69.90;66.00;;;;;;;26.97;41.51;101317.91;4879978;29;20033;-67
2022/08/03 04:20:22;;;;;;;70.15;66.80;;;;;;;26.94;41.48;101318.59;4879712;29;20040;-67
2022/08/03 04:22:50;;;;;;;71.88;68.15;;;;;;;26.93;41.82;101325.28;4879682;29;20473;-67
2022/08/03 04:25:18;;;;;;;70.93;67.27;;;;;;;26.89;41.42;101316.03;4879549;29;20036;-68
2022/08/03 04:27:46;;;;;;;73.72;69.82;;;;;;;26.87;41.66;101326.66;4879347;29;20033;-68
2022/08/03 04:30:13;;;;;;;69.55;66.13;;;;;;;26.84;41.60;101328.16;4879660;29;20052;-67
2022/08/03 04:32:39;;;;;;;72.65;68.80;;;;;;;26.80;41.49;101332.72;4879043;29;20394;-68
2022/08/03 04:35:05;;;;;;;69.88;66.03;;;;;;;26.79;41.37;101333.88;4893700;29;20042;-69
2022/08/03 04:37:50;;;;;;;70.85;67.28;;;;;;;26.77;41.69;101330.66;4879392;29;20044;-67
2022/08/03 04:40:36;;;;;;;69.15;65.03;;;;;;;26.73;41.43;101333.25;4879487;29;20029;-68
2022/08/03 04:43:02;;;;;;;67.68;64.38;;;;;;;26.70;41.42;101330.38;4879869;29;20037;-67
2022/08/03 04:45:29;;;;;;;69.50;65.50;;;;;;;26.67;41.68;101345.72;4879297;29;20033;-67
2022/08/03 04:47:56;;;;;;;70.22;65.78;;;;;;;26.65;42.14;101342.47;4878913;29;20055;-67
2022/08/03 04:50:21;;;;;;;67.45;64.25;;;;;;;26.63;41.96;101344.75;4879208;29;20135;-68
2022/08/03 04:52:48;;;;;;;69.13;65.22;;;;;;;26.60;42.00;101348.19;4878913;29;20510;-68
2022/08/03 04:55:30;;;;;;;70.20;66.30;;;;;;;26.60;41.78;101353.75;4879434;29;20423;-68
2022/08/03 04:57:57;;;;;;;70.55;66.95;;;;;;;26.58;41.72;101358.00;4879042;29;20375;-68
2022/08/03 05:00:23;;;;;;;70.68;66.97;;;;;;;26.55;42.11;101354.75;4878838;29;20435;-67
2022/08/03 05:02:48;;;;;;;67.82;64.10;;;;;;;26.53;41.92;101351.53;4879006;29;20075;-69
2022/08/03 05:05:14;;;;;;;68.30;64.95;;;;;;;26.52;42.13;101354.59;4879073;29;20108;-67
2022/08/03 05:07:41;;;;;;;67.78;63.85;;;;;;;26.51;42.37;101355.72;4880021;29;20041;-67
2022/08/03 05:10:08;;;;;;;70.13;66.18;;;;;;;26.50;42.45;101354.91;4881229;29;20045;-67
2022/08/03 05:12:34;;;;;;;70.60;66.90;;;;;;;26.49;41.88;101353.31;4882072;29;20048;-68
2022/08/03 05:15:00;;;;;;;67.07;63.65;;;;;;;26.48;42.21;101361.94;4882234;29;20037;-68
2022/08/03 05:17:26;;;;;;;69.63;65.93;;;;;;;26.47;42.44;101363.91;4882011;29;20037;-67
2022/08/03 05:19:51;;;;;;;67.13;63.83;;;;;;;26.46;42.19;101367.84;4882169;29;20029;-67
2022/08/03 05:22:17;;;;;;;68.75;64.57;;;;;;;26.46;41.74;101367.84;4896567;29;20135;-68
2022/08/03 05:24:42;;;;;;;67.72;64.25;;;;;;;26.46;41.96;101370.59;4882052;29;20382;-67
2022/08/03 05:27:07;;;;;;;67.97;63.88;;;;;;;26.46;42.44;101375.31;4882643;29;20061;-68
2022/08/03 05:29:33;;;;;;;63.08;59.72;;;;;;;26.45;42.41;101373.69;4882062;29;20493;-68
2022/08/03 05:32:00;;;;;;;66.45;63.05;;;;;;;26.44;42.38;101380.41;4881896;29;20037;-68
2022/08/03 05:34:25;;;;;;;68.15;64.63;;;;;;;26.43;42.05;101376.78;4881999;29;20119;-67
2022/08/03 05:36:51;;;;;;;66.95;63.33;;;;;;;26.44;42.05;101377.63;4882349;29;20415;-68
2022/08/03 05:39:16;;;;;;;64.10;61.00;;;;;;;26.44;42.24;101377.63;4881938;29;20048;-67
2022/08/03 05:41:41;;;;;;;66.97;63.22;;;;;;;26.43;42.26;101379.56;4881962;29;20040;-68
2022/08/03 05:44:07;;;;;;;66.03;62.72;;;;;;;26.42;42.34;101377.94;4881763;29;20037;-67
2022/08/03 05:46:32;;;;;;;68.10;64.47;;;;;;;26.42;42.67;101377.16;4881794;29;20358;-67
2022/08/03 05:48:57;;;;;;;69.88;66.20;;;;;;;26.42;42.35;101375.19;4881933;29;20060;-67
2022/08/03 05:51:23;;;;;;;66.57;62.95;;;;;;;26.43;42.33;101370.44;4881799;29;20037;-67
2022/08/03 05:53:48;;;;;;;68.65;64.80;;;;;;;26.43;42.79;101374.03;4881605;29;20374;-69
2022/08/03 05:56:14;;;;;;;64.95;61.55;;;;;;;26.42;42.83;101375.19;4881867;29;20389;-67
2022/08/03 05:58:39;;;;;;;68.03;64.72;;;;;;;26.43;42.63;101373.22;4881547;29;20447;-67
2022/08/03 06:01:04;;;;;;;65.50;61.95;;;;;;;26.42;42.40;101366.88;4881304;29;20427;-68
2022/08/03 06:03:30;;;;;;;70.68;66.57;;;;;;;26.43;42.52;101378.75;4881781;29;20390;-67
2022/08/03 06:05:55;;;;;;;67.15;63.85;;;;;;;26.43;42.67;101370.44;4881607;29;20041;-68
2022/08/03 06:08:21;;;;;;;67.43;63.72;;;;;;;26.42;43.06;101366.88;4881694;29;20096;-68
2022/08/03 06:10:47;;;;;;;66.22;62.92;;;;;;;26.43;42.55;101373.22;4881234;29;20119;-68
2022/08/03 06:13:13;;;;;;;66.55;63.33;;;;;;;26.43;43.08;101379.56;4881208;29;20035;-67
2022/08/03 06:15:39;;;;;;;64.13;60.67;;;;;;;26.44;43.07;101375.66;4880903;29;20062;-67
2022/08/03 06:18:04;;;;;;;67.90;63.67;;;;;;;26.44;43.17;101375.66;4880636;29;20142;-67
2022/08/03 06:20:30;;;;;;;65.05;60.58;;;;;;;26.45;42.98;101382.81;4881058;29;20050;-67
2022/08/03 06:22:55;;;;;;;65.85;61.47;;;;;;;26.45;43.21;101380.06;4881030;29;20109;-67
2022/08/03 06:25:21;;;;;;;68.80;63.80;;;;;;;26.46;43.37;101386.41;4881287;29;20041;-67
2022/08/03 06:27:46;;;;;;;67.07;63.25;;;;;;;26.46;43.10;101373.38;4881002;29;20458;-67
2022/08/03 06:30:12;;;;;;;65.45;62.15;;;;;;;26.49;43.40;101388.53;4880847;29;20430;-67
2022/08/03 06:32:39;;;;;;;68.55;64.88;;;;;;;26.50;43.33;101379.03;4880096;29;20037;-67
2022/08/03 06:35:06;;;;;;;65.15;61.17;;;;;;;26.52;43.41;101385.91;4880568;29;20482;-67
2022/08/03 06:37:40;;;;;;;67.95;63.67;;;;;;;26.55;43.31;101389.97;4880757;29;20046;-67
2022/08/03 06:40:06;;;;;;;66.35;62.42;;;;;;;26.57;43.55;101384.91;4880654;29;20032;-67
2022/08/03 06:42:31;;;;;;;65.45;61.63;;;;;;;26.59;43.38;101387.34;4880751;29;20035;-67
2022/08/03 06:44:56;;;;;;;67.22;63.75;;;;;;;26.61;43.18;101385.88;4895284;29;20124;-68
2022/08/03 06:47:22;;;;;;;69.28;65.40;;;;;;;26.62;43.47;101390.25;4880520;29;20033;-67
2022/08/03 06:49:47;;;;;;;65.30;61.70;;;;;;;26.64;43.46;101390.72;4880346;29;20465;-67
2022/08/03 06:52:12;;;;;;;67.18;63.25;;;;;;;26.67;43.40;101389.25;4880073;29;20053;-67
2022/08/03 06:54:38;;;;;;;66.55;62.97;;;;;;;26.68;43.07;101397.19;4880456;29;20029;-67
2022/08/03 06:57:03;;;;;;;69.40;65.18;;;;;;;26.72;43.44;101389.84;4879458;29;20037;-68
2022/08/03 06:59:29;;;;;;;66.60;63.15;;;;;;;26.75;42.99;101391.94;4880099;29;20048;-68
2022/08/03 07:01:54;;;;;;;67.03;63.45;;;;;;;26.77;43.26;101397.97;4880286;29;20382;-66
2022/08/03 07:04:20;;;;;;;68.82;63.90;;;;;;;26.81;43.10;101394.50;4880109;29;20068;-68
2022/08/03 07:06:45;;;;;;;64.05;60.65;;;;;;;26.83;43.14;101403.31;4880093;29;20080;-68
2022/08/03 07:09:10;;;;;;;66.15;62.75;;;;;;;26.85;43.42;101401.81;4880099;29;20025;-67
2022/08/03 07:11:36;;;;;;;72.20;67.88;;;;;;;26.88;43.04;101400.34;4880199;29;20115;-68
2022/08/03 07:14:01;;;;;;;67.13;63.17;;;;;;;26.89;43.11;101407.53;4879882;29;20066;-67
2022/08/03 07:16:26;;;;;;;64.50;60.15;;;;;;;26.91;43.22;101407.97;4879861;29;20029;-67
2022/08/03 07:18:52;;;;;;;71.00;67.40;;;;;;;26.93;43.12;101411.22;4879773;29;20044;-67
2022/08/03 07:21:17;;;;;;;69.22;65.28;;;;;;;26.95;43.50;101404.19;4879583;29;20040;-68
2022/08/03 07:23:42;;;;;;;69.93;66.45;;;;;;;26.98;43.29;101411.00;4879516;29;20486;-68
2022/08/03 07:26:08;;;;;;;67.20;63.65;;;;;;;27.00;43.69;101408.72;4894176;29;20508;-68
2022/08/03 07:28:33;;;;;;;67.13;63.65;;;;;;;27.02;43.17;101409.19;4879563;29;20453;-68
2022/08/03 07:30:58;;;;;;;73.40;69.68;;;;;;;27.06;43.21;101409.31;4879064;29;20101;-68
2022/08/03 07:33:24;;;;;;;69.63;65.55;;;;;;;27.09;43.36;101412.25;4879414;29;20029;-68
2022/08/03 07:35:49;;;;;;;66.95;63.53;;;;;;;27.12;43.43;101419.88;4879319;29;20535;-68
2022/08/03 07:38:15;;;;;;;69.00;65.30;;;;;;;27.16;43.57;101417.22;4879156;29;20044;-67
2022/08/03 07:40:40;;;;;;;72.30;67.97;;;;;;;27.18;43.29;101418.53;4878766;29;20044;-68
2022/08/03 07:43:06;;;;;;;73.20;68.88;;;;;;;27.23;43.53;101425.03;4879617;29;20391;-68
2022/08/03 07:45:31;;;;;;;67.95;63.80;;;;;;;27.26;43.62;101427.13;4879619;29;20040;-68
2022/08/03 07:47:56;;;;;;;71.45;67.55;;;;;;;27.29;43.52;101418.13;4879494;29;20025;-66
2022/08/03 07:50:22;;;;;;;76.57;72.00;;;;;;;27.33;43.02;101414.34;4878873;29;20041;-68
2022/08/03 07:52:48;;;;;;;71.03;67.22;;;;;;;27.37;43.34;101420.03;4879905;29;20060;-68
2022/08/03 07:55:22;;;;;;;73.28;69.32;;;;;;;27.42;43.26;101408.72;4879097;29;20029;-68
2022/08/03 07:58:06;;;;;;;73.68;69.75;;;;;;;27.48;43.14;101412.09;4879732;29;20025;-68
2022/08/03 08:00:34;;;;;;;73.95;70.47;;;;;;;27.51;43.45;101411.41;4878983;29;20029;-68
2022/08/03 08:03:00;;;;;;;72.40;68.60;;;;;;;27.56;43.32;101411.19;4879672;29;20029;-68
2022/08/03 08:05:26;;;;;;;69.43;66.10;;;;;;;27.60;43.01;101407.38;4878835;29;20483;-68
2022/08/03 08:07:52;;;;;;;72.88;69.05;;;;;;;27.65;42.98;101400.00;4879363;29;20048;-67
2022/08/03 08:10:18;;;;;;;78.05;73.95;;;;;;;27.70;43.24;101408.13;4879134;29;20033;-67
2022/08/03 08:12:43;;;;;;;74.68;70.68;;;;;;;27.76;43.48;101406.72;4879181;29;20033;-68
2022/08/03 08:15:09;;;;;;;76.75;72.13;;;;;;;27.81;43.39;101410.13;4879314;29;20462;-68
2022/08/03 08:17:47;;;;;;;78.18;73.88;;;;;;;27.89;43.12;101399.25;4878797;29;20075;-68
2022/08/03 08:20:16;;;;;;;75.35;70.57;;;;;;;27.95;43.31;101403.44;4878854;29;20039;-67
2022/08/03 08:22:42;;;;;;;72.72;68.40;;;;;;;27.99;43.39;101405.16;4879364;29;20115;-67
2022/08/03 08:25:07;;;;;;;75.15;70.88;;;;;;;28.07;43.21;101405.41;4878570;29;20057;-67
2022/08/03 08:27:33;;;;;;;77.75;73.28;;;;;;;28.13;43.23;101404.03;4879246;29;20041;-68
2022/08/03 08:29:58;;;;;;;75.30;71.22;;;;;;;28.21;43.03;101403.13;4879041;29;20045;-67
2022/08/03 08:32:23;;;;;;;77.07;73.13;;;;;;;28.28;43.22;101408.91;4878634;29;20140;-67
2022/08/03 08:34:49;;;;;;;79.07;74.10;;;;;;;28.34;43.14;101396.38;4879367;29;20423;-67
2022/08/03 08:37:15;;;;;;;80.43;75.18;;;;;;;28.42;43.16;101401.00;4879058;29;20116;-68
2022/08/03 08:39:40;;;;;;;79.03;74.70;;;;;;;28.50;42.70;101402.09;4877831;29;20043;-68
2022/08/03 08:42:06;;;;;;;80.93;76.22;;;;;;;28.58;42.70;101400.34;4880699;29;20116;-68
2022/08/03 08:44:31;;;;;;;79.72;75.07;;;;;;;28.65;42.61;101397.75;4882519;29;20033;-68
2022/08/03 08:47:01;;;;;;;78.53;73.97;;;;;;;28.73;42.53;101393.22;4882237;29;20040;-66
2022/08/03 08:49:28;;;;;;;83.28;78.50;;;;;;;28.80;42.14;101397.03;4882323;29;20037;-66
2022/08/03 08:51:55;;;;;;;82.18;77.75;;;;;;;28.87;42.05;101402.00;4882495;29;20057;-67
2022/08/03 08:54:21;;;;;;;80.93;76.70;;;;;;;28.96;41.96;101399.09;4882269;29;20033;-67
2022/08/03 08:56:49;;;;;;;81.35;77.07;;;;;;;29.04;41.92;101400.94;4882841;29;20040;-67
2022/08/03 08:59:16;;;;;;;85.03;79.93;;;;;;;29.11;41.68;101401.97;4882344;29;20489;-67
2022/08/03 09:01:41;;;;;;;82.60;78.40;;;;;;;29.21;41.66;101397.09;4896422;29;20060;-66
2022/08/03 09:04:08;;;;;;;85.60;80.47;;;;;;;29.28;41.73;101400.88;4881964;29;20381;-68
2022/08/03 09:06:34;;;;;;;86.80;82.05;;;;;;;29.37;41.34;101397.13;4882192;29;20124;-67
2022/08/03 09:09:00;;;;;;;81.60;77.30;;;;;;;29.46;41.36;101397.75;4881991;29;20037;-68
2022/08/03 09:11:25;;;;;;;82.93;78.43;;;;;;;29.54;41.39;101399.59;4881659;29;20055;-67
2022/08/03 09:13:50;;;;;;;86.13;81.50;;;;;;;29.61;41.02;101399.78;4882097;29;20394;-67
2022/08/03 09:16:19;;;;;;;86.15;81.05;;;;;;;29.70;40.81;101394.88;4882091;29;20390;-67
2022/08/03 09:18:52;;;;;;;83.35;79.22;;;;;;;29.80;40.80;101406.66;4881837;29;20029;-67
2022/08/03 09:21:20;;;;;;;91.57;86.80;;;;;;;29.89;40.97;101396.16;4881668;29;20083;-66
2022/08/03 09:23:45;;;;;;;;;;;;;;;29.97;40.89;101401.53;4882165;29;20091;-67
2022/08/03 09:26:11;;;;;;;88.85;83.75;;;;;;;30.05;40.77;101405.31;4881566;29;20289;-67
2022/08/03 09:28:37;;;;;;;84.35;80.15;;;;;;;30.14;40.58;101408.72;4881617;29;20064;-68
2022/08/03 09:31:02;;;;;;;85.28;80.80;;;;;;;30.23;40.28;101399.38;4881539;29;20041;-67
2022/08/03 09:33:28;;;;;;;88.93;84.55;;;;;;;30.31;40.18;101399.19;4882313;29;20388;-66
2022/08/03 09:35:55;;;;;;;93.05;88.65;;;;;;;30.40;39.82;101402.59;4881277;29;20366;-68
2022/08/03 09:38:23;;;;;;;91.78;87.13;;;;;;;30.50;39.60;101394.88;4880534;29;20045;-67
2022/08/03 09:40:49;;;;;;;89.35;85.10;;;;;;;30.58;39.69;101396.63;4881325;29;20025;-67
2022/08/03 09:43:15;;;;;;;92.40;87.97;;;;;;;30.66;39.16;101390.03;4882041;29;20083;-67
2022/08/03 09:45:41;;;;;;;94.80;89.72;;;;;;;30.76;39.44;101391.44;4896593;29;20131;-67
2022/08/03 09:48:24;;;;;;;88.90;83.60;;;;;;;30.87;39.09;101388.91;4881380;29;20041;-67
2022/08/03 09:50:55;;;;;;;90.30;85.45;;;;;;;30.95;38.96;101391.50;4881251;29;20078;-67
2022/08/03 09:53:21;;;;;;;93.03;88.18;;;;;;;31.04;39.17;101394.88;4880714;29;20053;-67
2022/08/03 09:55:55;;;;;;;94.28;89.70;;;;;;;31.13;38.51;101385.50;4881867;29;20052;-67
2022/08/03 09:58:22;;;;;;;96.57;91.72;;;;;;;31.23;38.43;101393.25;4881085;29;20041;-67
2022/08/03 10:01:04;;;;;;;93.15;88.57;;;;;;;31.32;38.06;101391.03;4880905;29;20127;-68
2022/08/03 10:03:35;;;;;;;94.45;89.60;;;;;;;31.41;37.83;101386.06;4881316;29;20041;-67
2022/08/03 10:06:15;;;;;;;93.20;88.03;;;;;;;31.52;38.13;101394.63;4881570;29;20407;-67
2022/08/03 10:08:41;;;;;;;93.53;88.28;;;;;;;31.61;38.03;101389.63;4881337;29;20166;-67
2022/08/03 10:11:06;;;;;;;94.65;89.70;;;;;;;31.70;37.71;101400.53;4881059;29;20457;-66
2022/08/03 10:13:32;;;;;;;97.35;92.07;;;;;;;31.78;37.48;101385.53;4880591;29;20419;-68
2022/08/03 10:15:58;;;;;;;98.53;93.18;;;;;;;31.87;37.24;101388.88;4880899;29;20039;-67
2022/08/03 10:18:23;;;;;;;98.80;93.60;;;;;;;31.96;37.16;101391.47;4880531;29;20108;-68
2022/08/03 10:20:52;;;;;;;98.60;93.15;;;;;;;32.06;37.07;101393.63;4880997;29;20044;-67
2022/08/03 10:23:18;;;;;;;101.20;95.55;;;;;;;32.16;36.64;101394.97;4880341;29;20041;-68
2022/08/03 10:25:53;;;;;;;102.30;96.88;;;;;;;32.25;37.11;101391.91;4880917;29;20040;-68
2022/08/03 10:28:20;;;;;;;101.80;96.72;;;;;;;32.33;36.70;101388.03;4881166;29;20098;-66
2022/08/03 10:30:51;;;;;;;102.18;97.18;;;;;;;32.42;36.44;101385.78;4879461;29;20045;-67
2022/08/03 10:33:26;;;;;;;106.00;100.47;;;;;;;32.52;36.27;101381.56;4880490;29;20473;-67
2022/08/03 10:35:55;;;;;;;100.15;95.28;;;;;;;32.61;36.14;101376.50;4880625;29;20542;-67
2022/08/03 10:38:25;;;;;;;105.28;99.90;;;;;;;32.71;36.05;101386.19;4880237;29;20435;-67
2022/08/03 10:40:56;;;;;;;105.70;99.78;;;;;;;32.79;35.64;101370.34;4880610;29;20033;-67
2022/08/03 10:43:27;;;;;;;104.03;99.15;;;;;;;32.87;36.54;101374.84;4880419;29;20076;-68
2022/08/03 10:45:54;;;;;;;105.88;100.65;;;;;;;32.95;36.11;101379.31;4880526;29;20039;-68
2022/08/03 10:48:21;;;;;;;106.43;101.05;;;;;;;33.03;35.93;101364.25;4879143;29;20037;-67
2022/08/03 10:50:48;;;;;;;105.80;100.47;;;;;;;33.12;35.13;101366.78;4880324;29;20048;-68
2022/08/03 10:53:14;;;;;;;104.80;99.00;;;;;;;33.18;35.19;101360.44;4880770;29;20045;-68
2022/08/03 10:58:39;;;;;;;105.88;100.82;;;;;;;33.35;35.07;101359.00;4880202;29;20554;-68
2022/08/03 11:01:06;;;;;;;106.60;101.22;;;;;;;33.42;35.47;101363.91;4880292;29;20041;-69
2022/08/03 11:03:32;;;;;;;109.32;104.07;;;;;;;33.49;35.46;101358.38;4879673;29;20065;-67
2022/08/03 11:06:18;;;;;;;107.35;101.95;;;;;;;33.56;34.86;101352.84;4880193;29;20051;-69
2022/08/03 11:08:47;;;;;;;107.40;102.05;;;;;;;33.64;35.22;101352.91;4880448;29;20037;-68
2022/08/03 11:11:15;;;;;;;112.20;106.63;;;;;;;33.70;34.92;101356.97;4879811;29;20516;-67
2022/08/03 11:14:15;;;;;;;107.72;102.35;;;;;;;33.77;34.60;101351.44;4879693;29;20055;-68
2022/08/03 11:16:44;;;;;;;109.65;104.20;;;;;;;33.86;34.51;101349.09;4879138;29;20040;-68
2022/08/03 11:19:21;;;;;;;116.07;110.40;;;;;;;33.92;34.23;101347.56;4879570;29;20045;-68
2022/08/03 11:24:36;;;;;;;114.97;109.40;;;;;;;34.07;34.27;101361.66;4879366;29;20047;-68
2022/08/03 11:27:31;;;;;;;110.22;105.00;;;;;;;34.12;34.48;101356.56;4879829;29;20438;-69